createdAt,value
2023-02-15T00:01:29.820Z,48.17
2023-02-15T00:04:17.787Z,43.03
2023-02-15T00:07:08.433Z,51.60
2023-02-15T00:09:55.317Z,40.43
2023-02-15T00:12:44.429Z,45.63
2023-02-15T00:15:31.957Z,44.53
2023-02-15T00:18:20.016Z,47.00
2023-02-15T00:21:08.584Z,51.30
2023-02-15T00:23:55.079Z,43.03
2023-02-15T00:26:43.628Z,39.30
2023-02-15T00:29:30.444Z,45.23
2023-02-15T00:32:16.994Z,43.63
2023-02-15T00:35:05.343Z,45.90
2023-02-15T00:37:53.510Z,46.07
2023-02-15T00:40:40.293Z,48.80
2023-02-15T00:43:28.230Z,50.50
2023-02-15T00:46:14.780Z,46.47
2023-02-15T00:49:01.618Z,40.23
2023-02-15T00:51:49.732Z,47.57
2023-02-15T00:54:36.728Z,48.97
2023-02-15T00:57:23.759Z,39.17
2023-02-15T01:00:11.616Z,36.00
2023-02-15T01:02:58.267Z,49.53
2023-02-15T01:05:45.036Z,42.87
2023-02-15T01:08:33.423Z,45.90
2023-02-15T01:11:23.881Z,41.97
2023-02-15T01:14:14.259Z,40.87
2023-02-15T01:17:02.033Z,39.87
2023-02-15T01:19:48.903Z,44.33
2023-02-15T01:22:35.808Z,44.57
2023-02-15T01:25:25.457Z,36.90
2023-02-15T01:28:12.868Z,42.10
2023-02-15T01:31:00.314Z,42.63
2023-02-15T01:33:47.983Z,39.30
2023-02-15T01:36:36.350Z,40.17
2023-02-15T01:39:23.256Z,43.43
2023-02-15T01:42:13.919Z,42.47
2023-02-15T01:45:02.683Z,46.07
2023-02-15T01:47:54.087Z,41.40
2023-02-15T01:50:45.189Z,39.67
2023-02-15T01:53:38.043Z,49.60
2023-02-15T01:56:31.593Z,42.77
2023-02-15T01:59:24.092Z,44.23
2023-02-15T02:02:15.232Z,42.33
2023-02-15T02:05:07.404Z,47.03
2023-02-15T02:07:57.077Z,42.77
2023-02-15T02:10:43.449Z,45.63
2023-02-15T02:13:30.742Z,45.83
2023-02-15T02:16:26.139Z,50.13
2023-02-15T02:19:43.814Z,44.27
2023-02-15T02:22:58.562Z,48.63
2023-02-15T02:26:46.883Z,49.93
2023-02-15T02:29:58.728Z,40.97
2023-02-15T02:33:19.599Z,43.30
2023-02-15T02:36:17.603Z,41.23
2023-02-15T02:39:16.036Z,44.50
2023-02-15T02:42:08.564Z,49.70
2023-02-15T02:45:00.128Z,41.63
2023-02-15T02:47:51.394Z,43.53
2023-02-15T02:50:41.700Z,42.30
2023-02-15T02:53:33.454Z,40.47
2023-02-15T02:56:24.690Z,40.73
2023-02-15T02:59:14.945Z,47.27
2023-02-15T03:02:08.377Z,42.47
2023-02-15T03:05:04.340Z,38.87
2023-02-15T03:07:55.555Z,44.40
2023-02-15T03:10:43.632Z,43.17
2023-02-15T03:13:30.807Z,36.20
2023-02-15T03:16:27.851Z,44.17
2023-02-15T03:19:18.579Z,40.33
2023-02-15T03:22:10.397Z,39.20
2023-02-15T03:25:01.747Z,42.07
2023-02-15T03:27:51.687Z,45.57
2023-02-15T03:30:44.197Z,39.33
2023-02-15T03:33:31.592Z,45.77
2023-02-15T03:36:24.972Z,46.50
2023-02-15T03:39:19.531Z,45.67
2023-02-15T03:42:15.081Z,45.10
2023-02-15T03:45:06.011Z,47.10
2023-02-15T03:47:54.916Z,39.57
2023-02-15T03:51:00.462Z,39.57
2023-02-15T03:53:48.929Z,46.60
2023-02-15T03:56:36.690Z,43.77
2023-02-15T03:59:42.239Z,46.67
2023-02-15T04:02:39.155Z,46.47
2023-02-15T04:05:25.632Z,38.37
2023-02-15T04:08:13.274Z,44.73
2023-02-15T04:10:58.658Z,36.53
2023-02-15T04:13:47.052Z,43.97
2023-02-15T04:16:34.155Z,36.47
2023-02-15T04:19:38.205Z,41.83
2023-02-15T04:22:42.603Z,41.07
2023-02-15T04:25:29.404Z,42.03
2023-02-15T04:28:16.082Z,35.57
2023-02-15T04:31:03.202Z,38.23
2023-02-15T04:33:51.301Z,34.47
2023-02-15T04:36:38.417Z,48.03
2023-02-15T04:39:24.929Z,40.60
2023-02-15T04:42:11.650Z,49.70
2023-02-15T04:44:58.404Z,39.47
2023-02-15T04:47:45.280Z,42.20
2023-02-15T04:50:33.341Z,41.93
2023-02-15T04:53:20.015Z,44.53
2023-02-15T04:56:06.895Z,49.03
2023-02-15T04:58:53.512Z,40.43
2023-02-15T05:01:40.628Z,48.57
2023-02-15T05:04:27.357Z,34.40
2023-02-15T05:07:15.829Z,43.70
2023-02-15T05:10:02.594Z,41.13
2023-02-15T05:12:49.653Z,43.87
2023-02-15T05:15:38.828Z,45.20
2023-02-15T05:18:25.880Z,47.43
2023-02-15T05:21:14.587Z,51.90
2023-02-15T05:24:22.522Z,49.43
2023-02-15T05:27:35.103Z,36.70
2023-02-15T05:30:23.014Z,45.00
2023-02-15T05:33:09.944Z,54.73
2023-02-15T05:35:56.671Z,37.37
2023-02-15T05:38:43.424Z,39.10
2023-02-15T05:41:31.618Z,40.00
2023-02-15T05:44:18.735Z,36.17
2023-02-15T05:47:08.162Z,39.07
2023-02-15T05:49:54.573Z,40.60
2023-02-15T05:52:41.536Z,48.20
2023-02-15T05:55:28.297Z,50.50
2023-02-15T05:58:16.478Z,42.60
2023-02-15T06:01:10.604Z,38.73
2023-02-15T06:03:57.415Z,44.63
2023-02-15T06:06:44.018Z,40.53
2023-02-15T06:09:31.504Z,42.27
2023-02-15T06:12:18.215Z,47.27
2023-02-15T06:15:07.126Z,45.20
2023-02-15T06:17:54.060Z,45.10
2023-02-15T06:20:40.866Z,34.87
2023-02-15T06:23:27.737Z,45.90
2023-02-15T06:26:14.525Z,50.60
2023-02-15T06:29:01.317Z,42.67
2023-02-15T06:31:49.575Z,40.93
2023-02-15T06:34:36.400Z,41.33
2023-02-15T06:37:24.772Z,46.07
2023-02-15T06:40:13.474Z,45.80
2023-02-15T06:43:02.096Z,47.93
2023-02-15T06:45:49.916Z,37.50
2023-02-15T06:48:39.138Z,45.63
2023-02-15T06:51:25.779Z,41.33
2023-02-15T06:54:12.721Z,47.10
2023-02-15T06:56:59.486Z,54.10
2023-02-15T06:59:46.226Z,54.00
2023-02-15T07:02:32.922Z,39.63
2023-02-15T07:05:21.362Z,51.47
2023-02-15T07:08:07.920Z,49.10
2023-02-15T07:11:17.474Z,49.30
2023-02-15T07:14:04.206Z,39.17
2023-02-15T07:16:51.188Z,49.03
2023-02-15T07:19:38.076Z,62.53
2023-02-15T07:22:26.254Z,55.00
2023-02-15T07:25:14.235Z,59.40
2023-02-15T07:28:03.388Z,66.20
2023-02-15T07:30:50.266Z,61.20
2023-02-15T07:33:37.011Z,71.03
2023-02-15T07:36:23.599Z,65.90
2023-02-15T07:39:11.793Z,60.30
2023-02-15T07:41:58.500Z,76.10
2023-02-15T07:44:50.463Z,90.13
2023-02-15T07:47:37.250Z,101.30
2023-02-15T07:50:24.130Z,89.13
2023-02-15T07:53:10.833Z,73.50
2023-02-15T07:56:01.732Z,62.80
2023-02-15T07:58:56.668Z,70.40
2023-02-15T08:01:43.135Z,84.63
2023-02-15T08:04:29.991Z,80.20
2023-02-15T08:07:16.804Z,78.37
2023-02-15T08:10:04.536Z,67.07
2023-02-15T08:12:53.645Z,75.70
2023-02-15T08:15:41.421Z,93.10
2023-02-15T08:18:28.829Z,73.33
2023-02-15T08:21:16.958Z,71.87
2023-02-15T08:24:06.047Z,72.97
2023-02-15T08:26:54.880Z,60.10
2023-02-15T08:29:44.465Z,60.37
2023-02-15T08:32:32.116Z,61.27
2023-02-15T08:35:19.716Z,85.80
2023-02-15T08:38:07.096Z,91.47
2023-02-15T08:40:54.535Z,81.43
2023-02-15T08:43:41.707Z,83.93
2023-02-15T08:46:31.007Z,85.43
2023-02-15T08:49:20.801Z,82.27
2023-02-15T08:52:08.110Z,62.87
2023-02-15T08:54:54.960Z,59.07
2023-02-15T08:57:45.917Z,60.30
2023-02-15T09:00:32.615Z,50.97
2023-02-15T09:03:20.809Z,63.63
2023-02-15T09:06:08.716Z,67.30
2023-02-15T09:08:55.813Z,67.07
2023-02-15T09:11:44.273Z,54.57
2023-02-15T09:14:30.814Z,55.53
2023-02-15T09:17:17.538Z,86.73
2023-02-15T09:20:07.614Z,57.50
2023-02-15T09:22:58.115Z,52.37
2023-02-15T09:25:45.935Z,49.30
2023-02-15T09:28:33.689Z,52.60
2023-02-15T09:31:24.327Z,47.93
2023-02-15T09:34:11.014Z,54.83
2023-02-15T09:36:59.299Z,49.77
2023-02-15T09:39:48.862Z,55.13
2023-02-15T09:42:56.414Z,56.93
2023-02-15T09:46:04.466Z,78.47
2023-02-15T09:48:59.326Z,55.27
2023-02-15T09:52:10.630Z,62.70
2023-02-15T09:55:13.331Z,94.20
2023-02-15T09:58:10.041Z,57.13
2023-02-15T10:01:03.627Z,61.60
2023-02-15T10:04:11.073Z,65.37
2023-02-15T10:07:07.751Z,61.60
2023-02-15T10:10:14.345Z,45.63
2023-02-15T10:13:16.513Z,57.07
2023-02-15T10:16:20.736Z,59.70
2023-02-15T10:19:19.915Z,54.13
2023-02-15T10:22:23.326Z,59.40
2023-02-15T10:25:32.446Z,72.27
2023-02-15T10:28:22.823Z,59.57
2023-02-15T10:31:22.496Z,66.87
2023-02-15T10:34:20.471Z,62.30
2023-02-15T10:37:26.606Z,53.23
2023-02-15T10:40:21.231Z,58.80
2023-02-15T10:43:26.730Z,57.27
2023-02-15T10:46:25.056Z,67.53
2023-02-15T10:49:43.158Z,62.03
2023-02-15T10:52:42.981Z,56.23
2023-02-15T10:55:41.557Z,58.53
2023-02-15T10:58:45.953Z,66.37
2023-02-15T11:01:36.947Z,65.03
2023-02-15T11:04:42.166Z,62.40
2023-02-15T11:07:34.660Z,60.37
2023-02-15T11:10:32.318Z,48.07
2023-02-15T11:13:21.193Z,55.43
2023-02-15T11:16:17.653Z,55.80
2023-02-15T11:19:11.365Z,53.50
2023-02-15T11:22:03.139Z,56.57
2023-02-15T11:24:51.451Z,61.67
2023-02-15T11:27:42.537Z,58.37
2023-02-15T11:30:42.627Z,56.97
2023-02-15T11:33:36.530Z,53.40
2023-02-15T11:36:27.510Z,55.63
2023-02-15T11:39:18.766Z,52.47
2023-02-15T11:42:14.261Z,55.07
2023-02-15T11:45:07.203Z,49.43
2023-02-15T11:47:55.857Z,53.43
2023-02-15T11:50:47.202Z,56.50
2023-02-15T11:53:40.817Z,53.50
2023-02-15T11:56:30.341Z,58.47
2023-02-15T11:59:29.261Z,53.83
2023-02-15T12:02:23.560Z,54.13
2023-02-15T12:05:20.858Z,54.80
2023-02-15T12:08:18.289Z,54.20
2023-02-15T12:11:13.402Z,53.57
2023-02-15T12:14:05.068Z,52.20
2023-02-15T12:16:55.568Z,52.13
2023-02-15T12:19:42.762Z,56.87
2023-02-15T12:22:32.699Z,54.23
2023-02-15T12:25:28.025Z,55.57
2023-02-15T12:28:29.073Z,56.77
2023-02-15T12:31:23.767Z,57.10
2023-02-15T12:34:15.569Z,52.77
2023-02-15T12:37:10.350Z,53.20
2023-02-15T12:39:59.065Z,55.20
2023-02-15T12:42:47.767Z,54.43
2023-02-15T12:45:36.238Z,54.77
2023-02-15T12:48:22.977Z,62.43
2023-02-15T12:51:11.729Z,58.40
2023-02-15T12:54:02.016Z,56.23
2023-02-15T12:56:48.586Z,58.67
2023-02-15T12:59:38.776Z,53.20
2023-02-15T13:02:31.949Z,54.57
2023-02-15T13:05:24.665Z,60.90
2023-02-15T13:08:15.948Z,59.20
2023-02-15T13:11:05.807Z,49.80
2023-02-15T13:13:55.067Z,52.87
2023-02-15T13:16:46.858Z,52.87
2023-02-15T13:19:38.052Z,57.57
2023-02-15T13:22:30.297Z,47.00
2023-02-15T13:25:21.924Z,52.00
2023-02-15T13:28:12.770Z,50.27
2023-02-15T13:31:00.903Z,56.37
2023-02-15T13:33:53.689Z,54.60
2023-02-15T13:36:47.168Z,52.00
2023-02-15T13:39:41.751Z,45.03
2023-02-15T13:42:34.724Z,51.33
2023-02-15T13:45:38.633Z,52.03
2023-02-15T13:48:46.952Z,59.57
2023-02-15T13:51:45.320Z,59.67
2023-02-15T13:54:45.546Z,74.57
2023-02-15T13:57:53.790Z,60.40
2023-02-15T14:00:50.076Z,65.97
2023-02-15T14:04:05.665Z,48.17
2023-02-15T14:07:36.498Z,50.17
2023-02-15T14:10:47.002Z,55.57
2023-02-15T14:13:54.561Z,51.33
2023-02-15T14:17:05.739Z,57.70
2023-02-15T14:19:56.963Z,46.93
2023-02-15T14:22:51.088Z,53.83
2023-02-15T14:25:42.463Z,50.60
2023-02-15T14:28:37.083Z,48.83
2023-02-15T14:31:42.981Z,56.27
2023-02-15T14:34:44.280Z,60.53
2023-02-15T14:37:43.032Z,46.93
2023-02-15T14:40:58.076Z,50.30
2023-02-15T14:43:57.083Z,48.03
2023-02-15T14:46:50.624Z,48.30
2023-02-15T14:49:40.109Z,54.77
2023-02-15T14:52:27.064Z,50.90
2023-02-15T14:55:38.633Z,55.57
2023-02-15T14:58:25.650Z,49.63
2023-02-15T15:01:13.776Z,53.87
2023-02-15T15:04:04.672Z,53.67
2023-02-15T15:07:02.924Z,50.00
2023-02-15T15:10:01.320Z,48.90
2023-02-15T15:12:50.746Z,41.87
2023-02-15T15:15:47.507Z,53.67
2023-02-15T15:18:52.149Z,49.53
2023-02-15T15:21:56.061Z,45.73
2023-02-15T15:24:54.574Z,47.30
2023-02-15T15:27:46.901Z,52.50
2023-02-15T15:30:55.692Z,50.53
2023-02-15T15:34:17.169Z,46.00
2023-02-15T15:37:49.497Z,46.83
2023-02-15T15:41:09.958Z,54.60
2023-02-15T15:44:39.012Z,52.33
2023-02-15T15:47:44.850Z,46.27
2023-02-15T15:50:33.359Z,50.13
2023-02-15T15:53:22.911Z,55.43
2023-02-15T15:56:16.322Z,52.50
2023-02-15T15:59:05.981Z,48.40
2023-02-15T16:01:53.140Z,51.97
2023-02-15T16:04:41.240Z,55.23
2023-02-15T16:07:28.445Z,50.07
2023-02-15T16:10:23.966Z,51.63
2023-02-15T16:13:15.929Z,46.33
2023-02-15T16:16:03.032Z,51.67
2023-02-15T16:18:50.815Z,47.40
2023-02-15T16:21:39.751Z,51.73
2023-02-15T16:25:11.933Z,47.53
2023-02-15T16:27:58.474Z,47.27
2023-02-15T16:30:45.615Z,50.70
2023-02-15T16:33:38.468Z,46.83
2023-02-15T16:36:27.904Z,49.37
2023-02-15T16:39:25.188Z,43.30
2023-02-15T16:42:16.528Z,44.90
2023-02-15T16:45:14.203Z,50.83
2023-02-15T16:48:07.641Z,49.70
2023-02-15T16:50:57.816Z,54.57
2023-02-15T16:53:49.365Z,53.00
2023-02-15T16:56:38.444Z,42.13
2023-02-15T16:59:34.356Z,43.97
2023-02-15T17:02:42.977Z,49.57
2023-02-15T17:05:33.311Z,42.97
2023-02-15T17:08:21.701Z,46.30
2023-02-15T17:11:19.883Z,48.93
2023-02-15T17:14:21.912Z,42.43
2023-02-15T17:17:10.211Z,54.33
2023-02-15T17:19:57.565Z,46.53
2023-02-15T17:22:44.058Z,46.03
2023-02-15T17:25:38.985Z,48.40
2023-02-15T17:28:29.269Z,44.40
2023-02-15T17:31:20.309Z,48.50
2023-02-15T17:34:07.197Z,53.77
2023-02-15T17:37:00.882Z,64.23
2023-02-15T17:39:48.736Z,54.53
2023-02-15T17:42:35.356Z,48.27
2023-02-15T17:45:23.721Z,42.47
2023-02-15T17:48:24.600Z,46.10
2023-02-15T17:51:15.195Z,49.03
2023-02-15T17:54:19.160Z,50.90
2023-02-15T17:57:11.432Z,47.10
2023-02-15T18:00:17.020Z,52.33
2023-02-15T18:03:21.385Z,45.10
2023-02-15T18:06:27.791Z,44.23
2023-02-15T18:09:33.999Z,49.33
2023-02-15T18:12:22.905Z,52.13
2023-02-15T18:15:13.146Z,52.77
2023-02-15T18:18:00.306Z,49.33
2023-02-15T18:20:46.883Z,47.87
2023-02-15T18:23:35.088Z,47.03
2023-02-15T18:26:23.810Z,48.17
2023-02-15T18:29:11.108Z,51.43
2023-02-15T18:31:59.590Z,52.30
2023-02-15T18:34:48.037Z,51.57
2023-02-15T18:37:35.299Z,48.67
2023-02-15T18:40:26.858Z,53.13
2023-02-15T18:43:14.449Z,46.70
2023-02-15T18:46:01.199Z,57.60
2023-02-15T18:48:47.842Z,50.80
2023-02-15T18:51:39.972Z,53.83
2023-02-15T18:54:27.012Z,56.80
2023-02-15T18:57:17.260Z,51.93
2023-02-15T19:00:05.820Z,52.93
2023-02-15T19:02:52.576Z,73.07
2023-02-15T19:05:39.124Z,50.80
2023-02-15T19:08:25.955Z,67.80
2023-02-15T19:11:16.594Z,55.77
2023-02-15T19:14:09.386Z,55.07
2023-02-15T19:16:56.715Z,54.70
2023-02-15T19:19:43.243Z,52.63
2023-02-15T19:22:32.806Z,53.23
2023-02-15T19:25:22.690Z,47.00
2023-02-15T19:28:17.141Z,54.20
2023-02-15T19:31:05.681Z,50.80
2023-02-15T19:33:53.124Z,57.17
2023-02-15T19:36:39.594Z,48.77
2023-02-15T19:39:30.012Z,50.70
2023-02-15T19:42:19.856Z,47.30
2023-02-15T19:45:14.963Z,48.10
2023-02-15T19:48:03.371Z,44.80
2023-02-15T19:50:50.547Z,43.70
2023-02-15T19:53:37.118Z,50.97
2023-02-15T19:56:27.024Z,40.87
2023-02-15T19:59:23.118Z,49.63
2023-02-15T20:02:14.687Z,48.63
2023-02-15T20:05:02.918Z,41.07
2023-02-15T20:07:52.084Z,40.50
2023-02-15T20:10:39.285Z,38.53
2023-02-15T20:13:26.437Z,50.20
2023-02-15T20:16:13.100Z,74.90
2023-02-15T20:18:59.869Z,67.03
2023-02-15T20:21:54.527Z,65.40
2023-02-15T20:24:40.971Z,66.33
2023-02-15T20:27:27.641Z,54.37
2023-02-15T20:30:19.822Z,51.50
2023-02-15T20:33:07.720Z,45.63
2023-02-15T20:35:54.538Z,52.30
2023-02-15T20:38:42.848Z,49.43
2023-02-15T20:41:39.244Z,42.37
2023-02-15T20:44:27.793Z,42.97
2023-02-15T20:47:14.284Z,44.43
2023-02-15T20:50:01.934Z,47.60
2023-02-15T20:52:50.567Z,48.23
2023-02-15T20:55:39.729Z,37.90
2023-02-15T20:58:30.226Z,39.97
2023-02-15T21:01:19.859Z,42.87
2023-02-15T21:04:08.825Z,44.50
2023-02-15T21:06:56.215Z,45.80
2023-02-15T21:09:42.777Z,41.73
2023-02-15T21:12:31.282Z,43.33
2023-02-15T21:15:31.747Z,43.07
2023-02-15T21:18:21.767Z,52.10
2023-02-15T21:21:08.277Z,41.03
2023-02-15T21:23:55.419Z,41.70
2023-02-15T21:26:46.041Z,49.23
2023-02-15T21:29:33.943Z,39.47
2023-02-15T21:32:20.775Z,38.77
2023-02-15T21:35:07.986Z,41.70
2023-02-15T21:37:55.104Z,43.33
2023-02-15T21:40:41.943Z,35.33
2023-02-15T21:43:46.164Z,40.37
2023-02-15T21:46:51.519Z,32.33
2023-02-15T21:49:38.297Z,41.37
2023-02-15T21:52:24.124Z,46.70
2023-02-15T21:55:14.957Z,44.83
2023-02-15T21:58:01.923Z,40.23
2023-02-15T22:00:49.594Z,38.30
2023-02-15T22:03:39.659Z,39.00
2023-02-15T22:06:26.375Z,39.13
2023-02-15T22:09:17.808Z,39.60
2023-02-15T22:12:05.213Z,45.57
2023-02-15T22:14:54.647Z,38.97
2023-02-15T22:17:41.247Z,39.03
2023-02-15T22:20:29.570Z,46.40
2023-02-15T22:23:16.290Z,41.37
2023-02-15T22:26:07.638Z,37.90
2023-02-15T22:28:54.468Z,46.20
2023-02-15T22:31:42.105Z,39.50
2023-02-15T22:34:32.280Z,38.77
2023-02-15T22:37:21.229Z,39.33
2023-02-15T22:40:09.685Z,37.87
2023-02-15T22:42:58.697Z,39.73
2023-02-15T22:45:46.621Z,39.60
2023-02-15T22:48:34.738Z,34.53
2023-02-15T22:51:24.039Z,36.03
2023-02-15T22:54:12.312Z,40.70
2023-02-15T22:57:00.932Z,44.60
2023-02-15T22:59:47.976Z,41.67
2023-02-15T23:02:34.865Z,34.20
2023-02-15T23:05:23.917Z,44.63
2023-02-15T23:08:11.445Z,42.73
2023-02-15T23:10:59.457Z,38.73
2023-02-15T23:13:46.146Z,36.20
2023-02-15T23:16:34.889Z,46.30
2023-02-15T23:19:22.353Z,42.40
2023-02-15T23:22:13.791Z,38.20
2023-02-15T23:25:00.668Z,40.03
2023-02-15T23:27:57.966Z,39.77
2023-02-15T23:30:44.634Z,47.80
2023-02-15T23:33:34.926Z,37.07
2023-02-15T23:36:27.792Z,43.40
2023-02-15T23:39:33.929Z,35.17
2023-02-15T23:42:25.196Z,35.13
2023-02-15T23:45:23.269Z,37.40
2023-02-15T23:48:33.704Z,32.03
2023-02-15T23:51:20.991Z,33.43
2023-02-15T23:54:07.767Z,39.60
2023-02-15T23:56:59.207Z,37.17
2023-02-15T23:59:46.097Z,38.60
